createdAt,value
2023-05-17T00:01:00.960Z,3.77
2023-05-17T00:03:28.337Z,3.23
2023-05-17T00:05:55.947Z,4.03
2023-05-17T00:08:23.497Z,3.67
2023-05-17T00:10:50.803Z,4.20
2023-05-17T00:13:20.790Z,4.10
2023-05-17T00:15:51.234Z,3.97
2023-05-17T00:18:19.300Z,4.10
2023-05-17T00:20:46.812Z,3.97
2023-05-17T00:23:14.146Z,3.93
2023-05-17T00:25:41.441Z,4.17
2023-05-17T00:28:08.736Z,4.50
2023-05-17T00:30:36.044Z,4.27
2023-05-17T00:33:04.326Z,3.50
2023-05-17T00:35:31.704Z,4.43
2023-05-17T00:37:59.156Z,4.77
2023-05-17T00:40:26.602Z,4.60
2023-05-17T00:42:53.988Z,4.30
2023-05-17T00:45:23.502Z,4.23
2023-05-17T00:47:50.992Z,4.43
2023-05-17T00:50:18.549Z,4.43
2023-05-17T00:52:46.726Z,5.07
2023-05-17T00:55:14.304Z,4.87
2023-05-17T00:57:43.798Z,4.70
2023-05-17T01:00:11.703Z,4.87
2023-05-17T01:02:39.161Z,4.47
2023-05-17T01:05:07.391Z,4.90
2023-05-17T01:07:36.054Z,4.80
2023-05-17T01:10:03.513Z,4.67
2023-05-17T01:13:11.247Z,5.43
2023-05-17T01:15:47.151Z,4.70
2023-05-17T01:18:53.418Z,4.07
2023-05-17T01:22:00.878Z,4.90
2023-05-17T01:25:07.636Z,5.40
2023-05-17T01:27:38.714Z,4.93
2023-05-17T01:30:07.856Z,4.57
2023-05-17T01:32:35.531Z,4.93
2023-05-17T01:35:05.501Z,4.50
2023-05-17T01:42:30.965Z,4.90
2023-05-17T01:45:07.584Z,5.20
2023-05-17T01:47:47.323Z,5.40
2023-05-17T01:50:17.485Z,5.00
2023-05-17T01:52:59.351Z,5.10
2023-05-17T01:55:44.278Z,4.60
2023-05-17T01:58:12.903Z,5.10
2023-05-17T02:00:42.847Z,4.80
2023-05-17T02:03:20.230Z,5.20
2023-05-17T02:05:51.663Z,4.60
2023-05-17T02:08:19.185Z,4.13
2023-05-17T02:10:46.490Z,5.10
2023-05-17T02:13:13.783Z,4.43
2023-05-17T02:15:41.127Z,5.20
2023-05-17T02:18:11.628Z,4.87
2023-05-17T02:20:39.884Z,4.73
2023-05-17T02:23:08.658Z,4.83
2023-05-17T02:25:35.959Z,4.93
2023-05-17T02:28:03.310Z,4.97
2023-05-17T02:30:31.085Z,4.90
2023-05-17T02:32:58.489Z,4.43
2023-05-17T02:35:26.035Z,5.00
2023-05-17T02:37:53.496Z,4.80
2023-05-17T02:40:20.866Z,4.63
2023-05-17T02:42:48.228Z,4.87
2023-05-17T02:45:15.584Z,5.63
2023-05-17T02:47:43.070Z,5.80
2023-05-17T02:50:10.863Z,5.93
2023-05-17T02:52:38.587Z,5.03
2023-05-17T02:55:07.681Z,5.50
2023-05-17T02:57:35.073Z,5.83
2023-05-17T03:00:03.383Z,4.97
2023-05-17T03:02:31.267Z,5.33
2023-05-17T03:04:58.787Z,5.20
2023-05-17T03:07:26.154Z,5.57
2023-05-17T03:09:54.136Z,5.13
2023-05-17T03:12:21.512Z,4.83
2023-05-17T03:14:48.914Z,4.77
2023-05-17T03:17:16.670Z,5.23
2023-05-17T03:19:44.172Z,4.57
2023-05-17T03:22:11.486Z,5.37
2023-05-17T03:24:39.236Z,5.70
2023-05-17T03:27:06.709Z,5.63
2023-05-17T03:29:36.133Z,4.97
2023-05-17T03:32:03.557Z,5.30
2023-05-17T03:34:31.117Z,5.87
2023-05-17T03:36:58.438Z,5.23
2023-05-17T03:39:25.926Z,4.70
2023-05-17T03:41:53.940Z,5.37
2023-05-17T03:44:22.535Z,5.20
2023-05-17T03:46:50.363Z,5.47
2023-05-17T03:49:18.670Z,5.90
2023-05-17T03:51:46.577Z,5.70
2023-05-17T03:54:13.988Z,5.50
2023-05-17T03:56:43.580Z,5.70
2023-05-17T03:59:10.952Z,6.07
2023-05-17T04:01:38.463Z,6.27
2023-05-17T04:04:05.988Z,5.33
2023-05-17T04:06:33.455Z,5.70
2023-05-17T04:09:01.098Z,5.90
2023-05-17T04:11:29.165Z,5.63
2023-05-17T04:13:57.918Z,5.23
2023-05-17T04:16:25.740Z,6.10
2023-05-17T04:18:53.753Z,5.57
2023-05-17T04:21:21.384Z,5.70
2023-05-17T04:23:50.441Z,5.63
2023-05-17T04:26:18.436Z,5.53
2023-05-17T04:28:45.817Z,4.20
2023-05-17T04:31:17.864Z,5.70
2023-05-17T04:33:46.081Z,6.23
2023-05-17T04:36:13.740Z,6.27
2023-05-17T04:38:42.103Z,5.50
2023-05-17T04:41:12.537Z,5.33
2023-05-17T04:43:41.936Z,5.40
2023-05-17T05:00:36.984Z,5.27
2023-05-17T05:38:48.969Z,4.40
2023-05-17T05:41:18.326Z,4.87
2023-05-17T05:43:46.190Z,4.50
2023-05-17T05:46:15.781Z,4.30
2023-05-17T05:48:44.532Z,4.10
2023-05-17T05:51:12.197Z,4.43
2023-05-17T05:53:42.459Z,3.87
2023-05-17T05:56:09.992Z,4.37
2023-05-17T05:58:37.499Z,4.13
2023-05-17T06:01:06.508Z,4.00
2023-05-17T06:03:34.175Z,4.00
2023-05-17T06:06:01.809Z,4.10
2023-05-17T06:08:29.311Z,4.40
2023-05-17T06:10:56.834Z,4.57
2023-05-17T06:13:24.184Z,4.43
2023-05-17T06:15:51.632Z,4.73
2023-05-17T06:18:19.398Z,4.60
2023-05-17T06:20:47.043Z,4.13
2023-05-17T06:23:15.248Z,4.20
2023-05-17T06:25:42.856Z,4.10
2023-05-17T06:28:10.611Z,3.90
2023-05-17T06:30:38.519Z,4.70
2023-05-17T06:33:07.839Z,4.00
2023-05-17T06:36:26.513Z,4.17
2023-05-17T06:38:55.994Z,3.93
2023-05-17T06:41:24.951Z,4.43
2023-05-17T06:43:53.605Z,3.70
2023-05-17T06:46:23.615Z,4.60
2023-05-17T06:48:55.958Z,3.93
2023-05-17T06:51:28.242Z,4.03
2023-05-17T06:53:56.528Z,3.97
2023-05-17T06:56:26.002Z,3.20
2023-05-17T06:58:54.187Z,3.20
2023-05-17T07:01:22.579Z,3.10
2023-05-17T07:03:50.742Z,3.37
2023-05-17T07:06:18.917Z,3.37
2023-05-17T07:08:46.830Z,2.90
2023-05-17T07:11:14.295Z,3.53
2023-05-17T07:13:42.993Z,2.80
2023-05-17T07:16:10.422Z,3.03
2023-05-17T07:18:37.908Z,2.63
2023-05-17T07:21:05.449Z,2.93
2023-05-17T07:23:33.079Z,2.73
2023-05-17T07:26:00.817Z,2.97
2023-05-17T07:28:28.225Z,2.83
2023-05-17T07:30:56.617Z,2.83
2023-05-17T07:33:24.581Z,2.40
2023-05-17T07:35:52.057Z,2.83
2023-05-17T07:38:19.738Z,3.30
2023-05-17T07:40:47.244Z,3.00
2023-05-17T07:43:14.661Z,3.07
2023-05-17T07:45:43.697Z,3.20
2023-05-17T07:48:11.060Z,3.20
2023-05-17T07:50:38.905Z,2.90
2023-05-17T07:53:06.531Z,2.63
2023-05-17T07:55:37.137Z,3.07
2023-05-17T07:58:04.739Z,3.17
2023-05-17T08:00:33.230Z,3.40
2023-05-17T08:03:01.794Z,2.80
2023-05-17T08:05:29.633Z,2.87
2023-05-17T08:08:00.817Z,2.80
2023-05-17T08:10:28.969Z,3.53
2023-05-17T08:12:57.588Z,3.20
2023-05-17T08:15:27.022Z,3.37
2023-05-17T08:17:55.180Z,3.10
2023-05-17T08:20:23.847Z,3.43
2023-05-17T08:22:52.715Z,3.30
2023-05-17T08:25:25.213Z,3.30
2023-05-17T08:27:52.659Z,3.70
2023-05-17T08:30:29.035Z,3.43
2023-05-17T08:32:57.164Z,3.20
2023-05-17T08:35:28.391Z,3.17
2023-05-17T08:37:57.768Z,3.10
2023-05-17T08:40:29.191Z,3.67
2023-05-17T08:42:57.570Z,3.07
2023-05-17T08:45:27.296Z,3.23
2023-05-17T08:47:55.447Z,3.10
2023-05-17T08:50:25.152Z,2.70
2023-05-17T08:52:53.616Z,3.00
2023-05-17T08:55:21.070Z,3.30
2023-05-17T08:57:49.910Z,2.83
2023-05-17T09:00:21.688Z,2.70
2023-05-17T09:02:49.794Z,2.70
2023-05-17T09:05:17.491Z,3.50
2023-05-17T09:07:47.696Z,3.20
2023-05-17T09:10:15.052Z,3.30
2023-05-17T09:12:44.356Z,3.50
2023-05-17T09:15:19.480Z,3.37
2023-05-17T09:17:54.524Z,3.27
2023-05-17T09:20:34.146Z,2.97
2023-05-17T09:23:03.043Z,2.90
2023-05-17T09:25:32.242Z,3.87
2023-05-17T09:28:32.102Z,3.30
2023-05-17T09:31:07.358Z,3.30
2023-05-17T09:33:43.957Z,3.13
2023-05-17T09:36:22.020Z,3.13
2023-05-17T09:39:01.737Z,2.87
2023-05-17T09:41:40.609Z,3.13
2023-05-17T09:44:12.575Z,3.10
2023-05-17T09:46:46.134Z,3.00
2023-05-17T09:49:14.610Z,3.30
2023-05-17T09:51:49.488Z,3.23
2023-05-17T09:54:20.685Z,3.20
2023-05-17T09:56:54.978Z,3.37
2023-05-17T09:59:25.868Z,3.33
2023-05-17T10:01:54.350Z,2.90
2023-05-17T10:04:24.043Z,3.10
2023-05-17T10:06:53.352Z,3.33
2023-05-17T10:09:23.098Z,3.47
2023-05-17T10:11:52.868Z,3.00
2023-05-17T10:14:29.452Z,3.13
2023-05-17T10:17:23.874Z,3.40
2023-05-17T10:19:52.727Z,3.87
2023-05-17T10:22:23.884Z,3.03
2023-05-17T10:24:52.103Z,3.10
2023-05-17T10:27:21.518Z,3.30
2023-05-17T10:29:50.750Z,3.30
2023-05-17T10:32:22.992Z,3.30
2023-05-17T10:35:06.065Z,3.57
2023-05-17T10:37:37.618Z,3.67
2023-05-17T10:40:05.662Z,3.30
2023-05-17T10:42:33.851Z,4.10
2023-05-17T10:45:01.684Z,3.23
2023-05-17T10:47:34.059Z,3.20
2023-05-17T10:50:03.347Z,3.90
2023-05-17T10:52:30.812Z,3.87
2023-05-17T10:55:00.313Z,3.30
2023-05-17T10:57:50.725Z,3.07
2023-05-17T11:00:27.684Z,3.10
2023-05-17T11:03:17.613Z,3.40
2023-05-17T11:06:05.551Z,3.37
2023-05-17T11:08:33.812Z,3.90
2023-05-17T11:11:17.173Z,4.80
2023-05-17T11:13:55.020Z,3.93
2023-05-17T11:16:35.172Z,3.83
2023-05-17T11:19:11.348Z,3.10
2023-05-17T11:21:49.177Z,3.20
2023-05-17T11:24:28.706Z,3.13
2023-05-17T11:27:00.206Z,3.60
2023-05-17T11:29:33.470Z,3.33
2023-05-17T11:32:07.556Z,3.67
2023-05-17T11:34:35.365Z,3.60
2023-05-17T11:37:04.676Z,2.87
2023-05-17T11:39:32.535Z,3.53
2023-05-17T11:42:00.041Z,3.53
2023-05-17T11:44:35.080Z,3.00
2023-05-17T11:47:06.456Z,3.40
2023-05-17T11:49:37.895Z,3.13
2023-05-17T11:52:09.116Z,3.20
2023-05-17T11:54:40.758Z,2.90
2023-05-17T11:57:09.601Z,2.97
2023-05-17T11:59:40.108Z,3.00
2023-05-17T12:02:08.641Z,3.13
2023-05-17T12:04:38.066Z,3.43
2023-05-17T12:07:09.829Z,2.70
2023-05-17T12:09:38.511Z,2.77
2023-05-17T12:12:08.978Z,3.20
2023-05-17T12:15:03.207Z,3.07
2023-05-17T12:17:38.715Z,3.30
2023-05-17T12:20:10.482Z,3.07
2023-05-17T12:22:54.927Z,3.50
2023-05-17T12:25:25.919Z,2.90
2023-05-17T12:27:54.530Z,2.77
2023-05-17T12:30:23.828Z,2.90
2023-05-17T12:32:51.561Z,2.90
2023-05-17T12:35:19.565Z,3.13
2023-05-17T12:37:52.343Z,3.33
2023-05-17T12:40:20.470Z,3.50
2023-05-17T12:42:48.160Z,3.20
2023-05-17T12:45:16.058Z,3.13
2023-05-17T12:47:44.894Z,3.07
2023-05-17T12:50:12.454Z,3.13
2023-05-17T12:52:41.152Z,2.90
2023-05-17T12:55:13.613Z,2.80
2023-05-17T12:57:50.402Z,2.87
2023-05-17T13:00:19.773Z,3.47
2023-05-17T13:02:48.126Z,3.50
2023-05-17T13:05:21.772Z,2.90
2023-05-17T13:07:49.457Z,3.23
2023-05-17T13:10:27.857Z,3.30
2023-05-17T13:13:00.133Z,3.40
2023-05-17T13:15:32.467Z,3.47
2023-05-17T13:18:01.057Z,3.83
2023-05-17T13:20:29.906Z,3.53
2023-05-17T13:22:57.853Z,3.63
2023-05-17T13:25:26.370Z,3.30
2023-05-17T13:27:55.342Z,3.93
2023-05-17T13:30:23.190Z,4.10
2023-05-17T13:32:51.039Z,3.93
2023-05-17T13:35:18.811Z,3.60
2023-05-17T13:37:46.527Z,3.60
2023-05-17T13:40:14.880Z,3.70
2023-05-17T13:42:42.829Z,3.13
2023-05-17T13:45:12.418Z,3.70
2023-05-17T13:47:40.216Z,3.53
2023-05-17T13:50:09.786Z,3.60
2023-05-17T13:52:37.498Z,3.90
2023-05-17T13:55:05.778Z,3.83
2023-05-17T13:57:33.323Z,3.70
2023-05-17T14:00:00.934Z,3.60
2023-05-17T14:02:29.745Z,3.30
2023-05-17T14:04:57.898Z,3.83
2023-05-17T14:07:25.349Z,3.87
2023-05-17T14:10:02.453Z,4.03
2023-05-17T14:12:30.297Z,3.10
2023-05-17T14:14:58.273Z,4.00
2023-05-17T14:17:26.244Z,4.00
2023-05-17T14:19:54.056Z,3.70
2023-05-17T14:22:21.733Z,3.97
2023-05-17T14:24:49.342Z,3.23
2023-05-17T14:27:17.142Z,3.70
2023-05-17T14:29:44.974Z,3.53
2023-05-17T14:32:14.176Z,3.60
2023-05-17T14:34:42.603Z,4.00
2023-05-17T14:37:11.306Z,4.50
2023-05-17T14:39:39.505Z,4.27
2023-05-17T14:42:08.782Z,3.57
2023-05-17T14:44:40.063Z,3.73
2023-05-17T14:47:08.371Z,4.20
2023-05-17T14:54:17.124Z,4.07
2023-05-17T14:56:45.793Z,4.00
2023-05-17T14:59:17.517Z,3.73
2023-05-17T15:01:48.923Z,4.47
2023-05-17T15:04:17.711Z,4.17
2023-05-17T15:06:49.045Z,4.03
2023-05-17T15:09:21.235Z,3.73
2023-05-17T15:11:49.596Z,4.07
2023-05-17T15:17:43.437Z,3.50
2023-05-17T15:25:21.595Z,4.03
2023-05-17T15:27:49.315Z,4.20
2023-05-17T15:30:17.533Z,5.03
2023-05-17T15:32:45.153Z,3.90
2023-05-17T15:35:13.981Z,3.83
2023-05-17T15:37:41.849Z,4.60
2023-05-17T15:40:10.887Z,3.63
2023-05-17T15:42:38.298Z,4.07
2023-05-17T15:45:06.596Z,3.87
2023-05-17T15:50:04.918Z,4.00
2023-05-17T15:52:32.249Z,4.20
2023-05-17T15:54:59.618Z,3.90
2023-05-17T15:57:30.376Z,3.97
2023-05-17T15:59:57.660Z,3.40
2023-05-17T16:02:25.854Z,4.33
2023-05-17T16:04:53.308Z,3.67
2023-05-17T16:07:20.994Z,3.27
2023-05-17T16:09:48.310Z,3.53
2023-05-17T16:12:15.658Z,3.80
2023-05-17T16:14:44.196Z,4.00
2023-05-17T16:17:12.626Z,4.00
2023-05-17T16:19:40.048Z,4.40
2023-05-17T16:22:07.756Z,4.00
2023-05-17T16:24:35.279Z,3.83
2023-05-17T16:27:07.243Z,4.33
2023-05-17T16:29:39.785Z,4.17
2023-05-17T16:32:08.584Z,4.47
2023-05-17T16:34:36.357Z,4.10
2023-05-17T16:37:04.481Z,4.20
2023-05-17T16:39:32.655Z,4.00
2023-05-17T16:42:02.139Z,3.60
2023-05-17T16:44:30.053Z,3.90
2023-05-17T16:46:57.489Z,4.13
2023-05-17T16:49:25.320Z,4.13
2023-05-17T16:51:52.662Z,3.73
2023-05-17T16:54:20.025Z,3.97
2023-05-17T16:56:47.568Z,3.83
2023-05-17T16:59:16.128Z,4.10
2023-05-17T17:01:43.507Z,3.83
2023-05-17T17:04:10.987Z,3.50
2023-05-17T17:06:38.665Z,4.07
2023-05-17T17:09:08.299Z,4.10
2023-05-17T17:11:35.848Z,3.53
2023-05-17T17:14:03.348Z,3.60
2023-05-17T17:16:32.052Z,3.83
2023-05-17T17:18:59.611Z,4.20
2023-05-17T17:21:27.022Z,3.73
2023-05-17T17:23:54.434Z,3.63
2023-05-17T17:26:21.956Z,4.30
2023-05-17T17:28:49.323Z,3.83
2023-05-17T17:31:18.176Z,4.63
2023-05-17T17:33:45.520Z,3.77
2023-05-17T17:36:12.890Z,3.50
2023-05-17T17:38:40.209Z,3.63
2023-05-17T17:41:07.932Z,4.20
2023-05-17T17:43:36.576Z,3.47
2023-05-17T17:46:04.076Z,3.50
2023-05-17T17:48:31.547Z,3.57
2023-05-17T17:50:59.420Z,3.57
2023-05-17T17:53:28.710Z,3.73
2023-05-17T17:55:56.180Z,3.70
2023-05-17T17:58:23.469Z,3.13
2023-05-17T18:00:50.858Z,3.40
2023-05-17T18:03:18.267Z,4.27
2023-05-17T18:05:46.164Z,4.00
2023-05-17T18:08:14.112Z,3.40
2023-05-17T18:10:41.351Z,3.87
2023-05-17T18:13:09.128Z,2.87
2023-05-17T18:15:36.411Z,3.53
2023-05-17T18:18:03.900Z,3.13
2023-05-17T18:20:31.696Z,3.57
2023-05-17T18:22:59.202Z,3.37
2023-05-17T18:25:26.588Z,3.20
2023-05-17T18:27:54.386Z,3.10
2023-05-17T18:30:21.998Z,3.30
2023-05-17T18:32:49.494Z,3.73
2023-05-17T18:35:19.091Z,3.97
2023-05-17T18:37:57.067Z,2.93
2023-05-17T18:43:35.251Z,3.33
2023-05-17T18:46:02.842Z,3.07
2023-05-17T18:48:35.409Z,3.00
2023-05-17T18:51:03.093Z,2.83
2023-05-17T18:53:30.515Z,2.80
2023-05-17T18:56:04.297Z,2.93
2023-05-17T19:01:54.230Z,3.23
2023-05-17T19:04:22.494Z,3.10
2023-05-17T19:06:50.018Z,3.37
2023-05-17T19:09:17.717Z,3.10
2023-05-17T19:11:45.913Z,3.67
2023-05-17T19:14:19.138Z,3.50
2023-05-17T19:17:39.155Z,2.93
2023-05-17T19:20:15.670Z,3.00
2023-05-17T19:22:56.605Z,3.50
2023-05-17T19:29:44.553Z,2.80
2023-05-17T19:32:45.879Z,3.43
2023-05-17T19:35:44.750Z,3.30
2023-05-17T19:38:19.456Z,2.80
2023-05-17T19:40:47.012Z,2.87
2023-05-17T19:43:14.341Z,3.07
2023-05-17T19:45:42.944Z,3.77
2023-05-17T19:48:10.575Z,2.70
2023-05-17T19:50:38.088Z,3.37
2023-05-17T19:53:05.603Z,3.03
2023-05-17T19:55:34.236Z,2.80
2023-05-17T19:58:02.991Z,3.80
2023-05-17T20:00:32.591Z,3.20
2023-05-17T20:03:00.611Z,3.07
2023-05-17T20:05:28.331Z,3.80
2023-05-17T20:07:55.722Z,3.57
2023-05-17T20:10:23.203Z,3.67
2023-05-17T20:12:50.922Z,3.27
2023-05-17T20:15:18.476Z,3.10
2023-05-17T20:17:45.916Z,3.60
2023-05-17T20:20:13.522Z,3.70
2023-05-17T20:22:42.866Z,3.70
2023-05-17T20:25:11.183Z,3.87
2023-05-17T20:28:04.268Z,3.90
2023-05-17T20:31:55.168Z,3.50
2023-05-17T20:34:23.196Z,3.43
2023-05-17T20:36:50.766Z,3.67
2023-05-17T20:39:22.061Z,3.07
2023-05-17T20:41:49.877Z,3.17
2023-05-17T20:44:18.765Z,3.50
2023-05-17T20:46:46.693Z,3.43
2023-05-17T20:49:14.739Z,4.57
2023-05-17T20:51:42.564Z,3.57
2023-05-17T20:54:10.043Z,3.47
2023-05-17T20:56:38.865Z,3.33
2023-05-17T20:59:07.306Z,3.83
2023-05-17T21:01:34.848Z,3.13
2023-05-17T21:04:02.424Z,3.83
2023-05-17T21:06:32.521Z,3.43
2023-05-17T21:09:02.513Z,3.87
2023-05-17T21:11:30.208Z,3.73
2023-05-17T21:13:59.746Z,3.90
2023-05-17T21:16:27.433Z,3.27
2023-05-17T21:18:55.290Z,3.87
2023-05-17T21:21:22.707Z,4.07
2023-05-17T21:23:50.298Z,3.80
2023-05-17T21:26:17.916Z,3.33
2023-05-17T21:28:45.330Z,3.90
2023-05-17T21:31:13.306Z,3.80
2023-05-17T21:33:40.739Z,4.17
2023-05-17T21:36:08.247Z,3.60
2023-05-17T21:38:36.010Z,3.63
2023-05-17T21:41:03.455Z,3.60
2023-05-17T21:43:30.871Z,3.93
2023-05-17T21:45:58.256Z,3.60
2023-05-17T21:48:25.896Z,3.90
2023-05-17T21:50:53.305Z,4.27
2023-05-17T21:53:21.435Z,3.57
2023-05-17T21:56:01.300Z,3.40
2023-05-17T21:58:30.946Z,4.03
2023-05-17T22:00:58.506Z,3.90
2023-05-17T22:03:26.089Z,3.33
2023-05-17T22:05:53.615Z,3.40
2023-05-17T22:08:21.057Z,4.43
2023-05-17T22:10:50.171Z,3.73
2023-05-17T22:13:18.253Z,3.43
2023-05-17T22:15:45.812Z,3.53
2023-05-17T22:18:13.676Z,3.80
2023-05-17T22:20:41.147Z,3.80
2023-05-17T22:23:09.208Z,3.80
2023-05-17T22:25:37.340Z,4.27
2023-05-17T22:28:04.663Z,4.07
2023-05-17T22:30:32.339Z,4.23
2023-05-17T22:33:01.021Z,3.97
2023-05-17T22:35:28.495Z,3.60
2023-05-17T22:37:55.923Z,4.00
2023-05-17T22:40:23.487Z,3.80
2023-05-17T22:42:51.837Z,3.50
2023-05-17T22:45:20.381Z,3.83
2023-05-17T22:47:48.208Z,4.07
2023-05-17T22:50:15.857Z,3.43
2023-05-17T22:52:46.468Z,3.80
2023-05-17T22:55:16.057Z,3.30
2023-05-17T22:57:43.373Z,3.90
2023-05-17T23:00:11.362Z,4.17
2023-05-17T23:02:39.175Z,4.80
2023-05-17T23:05:07.580Z,3.50
2023-05-17T23:07:38.686Z,3.60
2023-05-17T23:10:08.259Z,3.93
2023-05-17T23:12:37.102Z,3.63
2023-05-17T23:15:06.427Z,3.77
2023-05-17T23:17:35.318Z,4.20
2023-05-17T23:20:09.594Z,3.80
2023-05-17T23:22:37.472Z,3.57
2023-05-17T23:25:06.022Z,4.13
2023-05-17T23:27:35.189Z,3.83
2023-05-17T23:30:04.343Z,3.43
2023-05-17T23:32:35.274Z,4.17
2023-05-17T23:35:05.153Z,4.00
2023-05-17T23:37:35.035Z,3.60
2023-05-17T23:40:07.165Z,3.20
2023-05-17T23:42:34.895Z,4.63
2023-05-17T23:45:03.101Z,4.10
2023-05-17T23:47:33.470Z,3.47
2023-05-17T23:50:03.030Z,3.70
2023-05-17T23:52:32.462Z,4.00
2023-05-17T23:55:01.497Z,4.00
2023-05-17T23:57:29.414Z,4.27
2023-05-17T23:59:56.800Z,3.97
